sensor_id;sensor_type;location;lat;lon;timestamp;temperature;humidity
65064;DHT22;51654;51.452;6.644;2023-01-15T00:00:32;5.70;79.10
65064;DHT22;51654;51.452;6.644;2023-01-15T00:02:59;5.60;79.40
65064;DHT22;51654;51.452;6.644;2023-01-15T00:05:25;5.60;79.10
65064;DHT22;51654;51.452;6.644;2023-01-15T00:07:52;5.60;79.10
65064;DHT22;51654;51.452;6.644;2023-01-15T00:10:19;5.60;78.90
65064;DHT22;51654;51.452;6.644;2023-01-15T00:12:46;5.60;78.30
65064;DHT22;51654;51.452;6.644;2023-01-15T00:15:12;5.50;77.90
65064;DHT22;51654;51.452;6.644;2023-01-15T00:17:40;5.50;78.10
65064;DHT22;51654;51.452;6.644;2023-01-15T00:20:07;5.40;78.50
65064;DHT22;51654;51.452;6.644;2023-01-15T00:22:34;5.40;79.00
65064;DHT22;51654;51.452;6.644;2023-01-15T00:25:00;5.40;79.10
65064;DHT22;51654;51.452;6.644;2023-01-15T00:27:46;5.40;79.20
65064;DHT22;51654;51.452;6.644;2023-01-15T00:30:15;5.40;79.20
65064;DHT22;51654;51.452;6.644;2023-01-15T00:32:42;5.40;79.30
65064;DHT22;51654;51.452;6.644;2023-01-15T00:35:10;5.40;79.00
65064;DHT22;51654;51.452;6.644;2023-01-15T00:37:37;5.40;78.70
65064;DHT22;51654;51.452;6.644;2023-01-15T00:40:04;5.40;79.00
65064;DHT22;51654;51.452;6.644;2023-01-15T00:42:31;5.40;78.40
65064;DHT22;51654;51.452;6.644;2023-01-15T00:44:58;5.40;78.50
65064;DHT22;51654;51.452;6.644;2023-01-15T00:47:25;5.40;78.10
65064;DHT22;51654;51.452;6.644;2023-01-15T00:49:51;5.40;77.70
65064;DHT22;51654;51.452;6.644;2023-01-15T00:52:19;5.40;77.40
65064;DHT22;51654;51.452;6.644;2023-01-15T00:54:45;5.40;77.30
65064;DHT22;51654;51.452;6.644;2023-01-15T00:57:13;5.30;76.90
65064;DHT22;51654;51.452;6.644;2023-01-15T00:59:41;5.30;77.20
65064;DHT22;51654;51.452;6.644;2023-01-15T01:02:08;5.20;77.30
65064;DHT22;51654;51.452;6.644;2023-01-15T01:04:35;5.20;77.50
65064;DHT22;51654;51.452;6.644;2023-01-15T01:07:01;5.20;78.00
65064;DHT22;51654;51.452;6.644;2023-01-15T01:09:28;5.20;77.60
65064;DHT22;51654;51.452;6.644;2023-01-15T01:11:55;5.30;77.60
65064;DHT22;51654;51.452;6.644;2023-01-15T01:14:22;5.30;76.90
65064;DHT22;51654;51.452;6.644;2023-01-15T01:16:49;5.30;76.70
65064;DHT22;51654;51.452;6.644;2023-01-15T01:19:17;5.30;77.20
65064;DHT22;51654;51.452;6.644;2023-01-15T01:21:44;5.30;76.10
65064;DHT22;51654;51.452;6.644;2023-01-15T01:24:12;5.30;76.10
65064;DHT22;51654;51.452;6.644;2023-01-15T01:26:39;5.20;75.90
65064;DHT22;51654;51.452;6.644;2023-01-15T01:29:06;5.20;76.20
65064;DHT22;51654;51.452;6.644;2023-01-15T01:31:33;5.20;76.10
65064;DHT22;51654;51.452;6.644;2023-01-15T01:33:59;5.20;76.10
65064;DHT22;51654;51.452;6.644;2023-01-15T01:36:28;5.20;75.90
65064;DHT22;51654;51.452;6.644;2023-01-15T01:38:55;5.10;76.00
65064;DHT22;51654;51.452;6.644;2023-01-15T01:41:22;5.10;76.00
65064;DHT22;51654;51.452;6.644;2023-01-15T01:44:00;5.10;76.10
65064;DHT22;51654;51.452;6.644;2023-01-15T01:46:28;5.10;76.20
65064;DHT22;51654;51.452;6.644;2023-01-15T01:49:29;5.10;76.20
65064;DHT22;51654;51.452;6.644;2023-01-15T01:51:49;5.10;76.50
65064;DHT22;51654;51.452;6.644;2023-01-15T01:54:18;5.10;76.30
65064;DHT22;51654;51.452;6.644;2023-01-15T01:56:47;5.10;75.90
65064;DHT22;51654;51.452;6.644;2023-01-15T01:59:15;5.10;75.90
65064;DHT22;51654;51.452;6.644;2023-01-15T02:01:42;5.10;75.80
65064;DHT22;51654;51.452;6.644;2023-01-15T02:04:09;5.10;76.20
65064;DHT22;51654;51.452;6.644;2023-01-15T02:06:38;5.20;75.70
65064;DHT22;51654;51.452;6.644;2023-01-15T02:09:06;5.20;75.50
65064;DHT22;51654;51.452;6.644;2023-01-15T02:11:33;5.10;75.40
65064;DHT22;51654;51.452;6.644;2023-01-15T02:14:03;5.10;75.20
65064;DHT22;51654;51.452;6.644;2023-01-15T02:16:42;5.10;75.20
65064;DHT22;51654;51.452;6.644;2023-01-15T02:24:32;5.10;75.10
65064;DHT22;51654;51.452;6.644;2023-01-15T02:29:34;5.00;74.90
65064;DHT22;51654;51.452;6.644;2023-01-15T02:32:05;5.00;75.00
65064;DHT22;51654;51.452;6.644;2023-01-15T02:34:35;5.00;75.10
65064;DHT22;51654;51.452;6.644;2023-01-15T02:37:12;5.00;74.90
65064;DHT22;51654;51.452;6.644;2023-01-15T02:39:40;5.00;75.00
65064;DHT22;51654;51.452;6.644;2023-01-15T02:42:08;5.00;74.50
65064;DHT22;51654;51.452;6.644;2023-01-15T02:44:44;5.00;74.60
65064;DHT22;51654;51.452;6.644;2023-01-15T02:47:14;5.10;74.70
65064;DHT22;51654;51.452;6.644;2023-01-15T02:49:42;5.10;75.10
65064;DHT22;51654;51.452;6.644;2023-01-15T02:52:14;5.20;74.50
65064;DHT22;51654;51.452;6.644;2023-01-15T02:54:53;5.10;74.50
65064;DHT22;51654;51.452;6.644;2023-01-15T02:57:22;5.10;74.50
65064;DHT22;51654;51.452;6.644;2023-01-15T02:59:53;5.10;74.70
65064;DHT22;51654;51.452;6.644;2023-01-15T03:02:24;5.20;74.70
65064;DHT22;51654;51.452;6.644;2023-01-15T03:05:00;5.10;74.40
65064;DHT22;51654;51.452;6.644;2023-01-15T03:07:33;5.20;74.40
65064;DHT22;51654;51.452;6.644;2023-01-15T03:10:00;5.10;74.40
65064;DHT22;51654;51.452;6.644;2023-01-15T03:12:36;5.10;74.50
65064;DHT22;51654;51.452;6.644;2023-01-15T03:15:29;5.10;74.50
65064;DHT22;51654;51.452;6.644;2023-01-15T03:18:19;5.10;74.60
65064;DHT22;51654;51.452;6.644;2023-01-15T03:20:49;5.00;74.70
65064;DHT22;51654;51.452;6.644;2023-01-15T03:23:17;5.00;75.00
65064;DHT22;51654;51.452;6.644;2023-01-15T03:25:46;5.00;75.40
65064;DHT22;51654;51.452;6.644;2023-01-15T03:28:15;5.00;75.40
65064;DHT22;51654;51.452;6.644;2023-01-15T03:30:47;5.00;75.70
65064;DHT22;51654;51.452;6.644;2023-01-15T03:33:14;5.00;76.10
65064;DHT22;51654;51.452;6.644;2023-01-15T03:35:46;5.00;76.00
65064;DHT22;51654;51.452;6.644;2023-01-15T03:38:24;5.00;76.30
65064;DHT22;51654;51.452;6.644;2023-01-15T03:40:56;5.00;76.20
65064;DHT22;51654;51.452;6.644;2023-01-15T03:43:31;5.00;76.40
65064;DHT22;51654;51.452;6.644;2023-01-15T03:46:12;4.90;76.40
65064;DHT22;51654;51.452;6.644;2023-01-15T03:48:43;4.90;76.60
65064;DHT22;51654;51.452;6.644;2023-01-15T03:51:24;4.90;76.80
65064;DHT22;51654;51.452;6.644;2023-01-15T03:53:54;4.90;77.30
65064;DHT22;51654;51.452;6.644;2023-01-15T03:56:28;4.90;77.10
65064;DHT22;51654;51.452;6.644;2023-01-15T04:01:40;4.90;77.00
65064;DHT22;51654;51.452;6.644;2023-01-15T04:04:09;4.90;77.00
65064;DHT22;51654;51.452;6.644;2023-01-15T04:06:42;4.90;76.90
65064;DHT22;51654;51.452;6.644;2023-01-15T04:09:10;4.90;77.00
65064;DHT22;51654;51.452;6.644;2023-01-15T04:11:37;4.90;77.00
65064;DHT22;51654;51.452;6.644;2023-01-15T04:14:05;4.90;77.30
65064;DHT22;51654;51.452;6.644;2023-01-15T04:16:39;4.90;77.10
65064;DHT22;51654;51.452;6.644;2023-01-15T04:19:06;4.90;76.90
65064;DHT22;51654;51.452;6.644;2023-01-15T04:21:37;5.00;77.10
65064;DHT22;51654;51.452;6.644;2023-01-15T04:24:03;5.00;76.80
65064;DHT22;51654;51.452;6.644;2023-01-15T04:26:30;5.10;76.40
65064;DHT22;51654;51.452;6.644;2023-01-15T04:28:57;5.10;76.40
65064;DHT22;51654;51.452;6.644;2023-01-15T04:31:23;5.10;76.60
65064;DHT22;51654;51.452;6.644;2023-01-15T04:33:50;5.10;76.60
65064;DHT22;51654;51.452;6.644;2023-01-15T04:36:17;5.10;76.30
65064;DHT22;51654;51.452;6.644;2023-01-15T04:38:44;5.00;76.20
65064;DHT22;51654;51.452;6.644;2023-01-15T04:41:10;5.00;76.20
65064;DHT22;51654;51.452;6.644;2023-01-15T04:43:56;5.00;76.30
65064;DHT22;51654;51.452;6.644;2023-01-15T04:49:02;5.00;76.40
65064;DHT22;51654;51.452;6.644;2023-01-15T04:51:29;5.00;76.20
65064;DHT22;51654;51.452;6.644;2023-01-15T04:53:56;5.10;76.40
65064;DHT22;51654;51.452;6.644;2023-01-15T04:56:23;5.10;76.00
65064;DHT22;51654;51.452;6.644;2023-01-15T04:58:50;5.10;75.80
65064;DHT22;51654;51.452;6.644;2023-01-15T05:01:16;5.10;76.20
65064;DHT22;51654;51.452;6.644;2023-01-15T05:03:44;5.10;75.90
65064;DHT22;51654;51.452;6.644;2023-01-15T05:06:11;5.00;75.70
65064;DHT22;51654;51.452;6.644;2023-01-15T05:08:39;5.00;75.90
65064;DHT22;51654;51.452;6.644;2023-01-15T05:11:07;5.10;76.40
65064;DHT22;51654;51.452;6.644;2023-01-15T05:13:34;5.10;76.40
65064;DHT22;51654;51.452;6.644;2023-01-15T05:16:14;5.10;76.10
65064;DHT22;51654;51.452;6.644;2023-01-15T05:18:42;5.00;76.40
65064;DHT22;51654;51.452;6.644;2023-01-15T05:21:12;5.00;76.50
65064;DHT22;51654;51.452;6.644;2023-01-15T05:23:39;5.10;77.30
65064;DHT22;51654;51.452;6.644;2023-01-15T05:26:06;5.30;77.20
65064;DHT22;51654;51.452;6.644;2023-01-15T05:28:33;5.30;76.40
65064;DHT22;51654;51.452;6.644;2023-01-15T05:31:04;5.40;76.40
65064;DHT22;51654;51.452;6.644;2023-01-15T05:33:31;5.30;75.40
65064;DHT22;51654;51.452;6.644;2023-01-15T05:36:02;5.30;75.60
65064;DHT22;51654;51.452;6.644;2023-01-15T05:38:29;5.30;75.60
65064;DHT22;51654;51.452;6.644;2023-01-15T05:40:55;5.40;75.90
65064;DHT22;51654;51.452;6.644;2023-01-15T05:43:22;5.40;76.30
65064;DHT22;51654;51.452;6.644;2023-01-15T05:45:49;5.50;76.40
65064;DHT22;51654;51.452;6.644;2023-01-15T05:48:16;5.50;75.50
65064;DHT22;51654;51.452;6.644;2023-01-15T05:50:42;5.50;75.20
65064;DHT22;51654;51.452;6.644;2023-01-15T05:53:09;5.50;75.90
65064;DHT22;51654;51.452;6.644;2023-01-15T05:55:36;5.50;75.70
65064;DHT22;51654;51.452;6.644;2023-01-15T05:58:02;5.60;76.30
65064;DHT22;51654;51.452;6.644;2023-01-15T06:00:29;5.60;74.40
65064;DHT22;51654;51.452;6.644;2023-01-15T06:02:56;5.50;74.00
65064;DHT22;51654;51.452;6.644;2023-01-15T06:05:22;5.50;74.70
65064;DHT22;51654;51.452;6.644;2023-01-15T06:07:49;5.50;74.20
65064;DHT22;51654;51.452;6.644;2023-01-15T06:10:18;5.40;74.30
65064;DHT22;51654;51.452;6.644;2023-01-15T06:12:44;5.50;75.10
65064;DHT22;51654;51.452;6.644;2023-01-15T06:15:12;5.60;75.20
65064;DHT22;51654;51.452;6.644;2023-01-15T06:17:39;5.50;73.60
65064;DHT22;51654;51.452;6.644;2023-01-15T06:20:06;5.40;73.50
65064;DHT22;51654;51.452;6.644;2023-01-15T06:22:33;5.40;74.00
65064;DHT22;51654;51.452;6.644;2023-01-15T06:25:00;5.40;74.40
65064;DHT22;51654;51.452;6.644;2023-01-15T06:27:26;5.40;74.10
65064;DHT22;51654;51.452;6.644;2023-01-15T06:29:53;5.40;74.30
65064;DHT22;51654;51.452;6.644;2023-01-15T06:32:20;5.40;74.20
65064;DHT22;51654;51.452;6.644;2023-01-15T06:34:46;5.40;74.10
65064;DHT22;51654;51.452;6.644;2023-01-15T06:37:13;5.40;74.00
65064;DHT22;51654;51.452;6.644;2023-01-15T06:39:40;5.40;73.90
65064;DHT22;51654;51.452;6.644;2023-01-15T06:42:07;5.30;73.90
65064;DHT22;51654;51.452;6.644;2023-01-15T06:45:12;5.20;74.20
65064;DHT22;51654;51.452;6.644;2023-01-15T06:47:57;5.20;74.80
65064;DHT22;51654;51.452;6.644;2023-01-15T06:50:24;5.30;75.10
65064;DHT22;51654;51.452;6.644;2023-01-15T06:52:51;5.30;75.00
65064;DHT22;51654;51.452;6.644;2023-01-15T06:55:18;5.30;74.90
65064;DHT22;51654;51.452;6.644;2023-01-15T06:57:44;5.30;74.60
65064;DHT22;51654;51.452;6.644;2023-01-15T07:00:11;5.20;74.20
65064;DHT22;51654;51.452;6.644;2023-01-15T07:02:38;5.20;74.50
65064;DHT22;51654;51.452;6.644;2023-01-15T07:05:06;5.20;74.90
65064;DHT22;51654;51.452;6.644;2023-01-15T07:07:33;5.20;74.60
65064;DHT22;51654;51.452;6.644;2023-01-15T07:10:00;5.20;74.80
65064;DHT22;51654;51.452;6.644;2023-01-15T07:12:27;5.20;74.40
65064;DHT22;51654;51.452;6.644;2023-01-15T07:14:54;5.10;74.20
65064;DHT22;51654;51.452;6.644;2023-01-15T07:17:20;5.20;74.30
65064;DHT22;51654;51.452;6.644;2023-01-15T07:19:47;5.10;73.70
65064;DHT22;51654;51.452;6.644;2023-01-15T07:22:14;5.00;73.50
65064;DHT22;51654;51.452;6.644;2023-01-15T07:24:40;5.00;73.60
65064;DHT22;51654;51.452;6.644;2023-01-15T07:27:07;5.00;73.70
65064;DHT22;51654;51.452;6.644;2023-01-15T07:29:34;4.90;73.60
65064;DHT22;51654;51.452;6.644;2023-01-15T07:32:01;4.90;73.70
65064;DHT22;51654;51.452;6.644;2023-01-15T07:34:28;4.90;73.70
65064;DHT22;51654;51.452;6.644;2023-01-15T07:36:54;4.90;73.90
65064;DHT22;51654;51.452;6.644;2023-01-15T07:39:21;4.90;73.80
65064;DHT22;51654;51.452;6.644;2023-01-15T07:41:48;4.90;73.70
65064;DHT22;51654;51.452;6.644;2023-01-15T07:44:34;5.00;73.90
65064;DHT22;51654;51.452;6.644;2023-01-15T07:47:21;5.00;73.70
65064;DHT22;51654;51.452;6.644;2023-01-15T07:50:17;4.90;73.90
65064;DHT22;51654;51.452;6.644;2023-01-15T07:52:44;5.00;74.20
65064;DHT22;51654;51.452;6.644;2023-01-15T07:55:11;4.90;73.60
65064;DHT22;51654;51.452;6.644;2023-01-15T07:57:39;4.90;73.80
65064;DHT22;51654;51.452;6.644;2023-01-15T08:00:07;4.80;73.80
65064;DHT22;51654;51.452;6.644;2023-01-15T08:02:37;4.80;74.10
65064;DHT22;51654;51.452;6.644;2023-01-15T08:05:04;4.70;74.00
65064;DHT22;51654;51.452;6.644;2023-01-15T08:07:35;4.70;74.30
65064;DHT22;51654;51.452;6.644;2023-01-15T08:10:02;4.70;74.30
65064;DHT22;51654;51.452;6.644;2023-01-15T08:12:29;4.80;73.90
65064;DHT22;51654;51.452;6.644;2023-01-15T08:15:14;4.80;74.20
65064;DHT22;51654;51.452;6.644;2023-01-15T08:17:49;4.90;74.00
65064;DHT22;51654;51.452;6.644;2023-01-15T08:20:17;4.90;73.40
65064;DHT22;51654;51.452;6.644;2023-01-15T08:22:44;4.90;73.40
65064;DHT22;51654;51.452;6.644;2023-01-15T08:25:12;4.90;73.10
65064;DHT22;51654;51.452;6.644;2023-01-15T08:27:40;5.00;73.60
65064;DHT22;51654;51.452;6.644;2023-01-15T08:30:10;5.00;73.20
65064;DHT22;51654;51.452;6.644;2023-01-15T08:32:37;4.90;73.20
65064;DHT22;51654;51.452;6.644;2023-01-15T08:35:04;4.90;72.80
65064;DHT22;51654;51.452;6.644;2023-01-15T08:37:31;4.80;73.10
65064;DHT22;51654;51.452;6.644;2023-01-15T08:39:58;4.80;72.70
65064;DHT22;51654;51.452;6.644;2023-01-15T08:42:24;4.80;73.20
65064;DHT22;51654;51.452;6.644;2023-01-15T08:44:51;4.80;72.50
65064;DHT22;51654;51.452;6.644;2023-01-15T08:47:21;4.80;72.10
65064;DHT22;51654;51.452;6.644;2023-01-15T08:49:47;4.70;72.20
65064;DHT22;51654;51.452;6.644;2023-01-15T08:52:14;4.60;72.00
65064;DHT22;51654;51.452;6.644;2023-01-15T08:54:41;4.50;72.00
65064;DHT22;51654;51.452;6.644;2023-01-15T08:57:09;4.50;72.00
65064;DHT22;51654;51.452;6.644;2023-01-15T08:59:37;4.50;72.30
65064;DHT22;51654;51.452;6.644;2023-01-15T09:02:04;4.50;72.60
65064;DHT22;51654;51.452;6.644;2023-01-15T09:04:31;4.50;72.60
65064;DHT22;51654;51.452;6.644;2023-01-15T09:06:58;4.50;71.90
65064;DHT22;51654;51.452;6.644;2023-01-15T09:09:24;4.40;71.60
65064;DHT22;51654;51.452;6.644;2023-01-15T09:11:51;4.50;71.60
65064;DHT22;51654;51.452;6.644;2023-01-15T09:14:18;4.80;71.30
65064;DHT22;51654;51.452;6.644;2023-01-15T09:17:05;5.40;70.50
65064;DHT22;51654;51.452;6.644;2023-01-15T09:19:31;6.10;68.80
65064;DHT22;51654;51.452;6.644;2023-01-15T09:21:58;6.70;67.70
65064;DHT22;51654;51.452;6.644;2023-01-15T09:24:25;7.30;66.00
65064;DHT22;51654;51.452;6.644;2023-01-15T09:26:52;7.80;63.70
65064;DHT22;51654;51.452;6.644;2023-01-15T09:29:19;7.90;61.60
65064;DHT22;51654;51.452;6.644;2023-01-15T09:31:46;8.10;60.90
65064;DHT22;51654;51.452;6.644;2023-01-15T09:34:13;8.20;61.00
65064;DHT22;51654;51.452;6.644;2023-01-15T09:36:39;8.40;59.90
65064;DHT22;51654;51.452;6.644;2023-01-15T09:39:07;8.50;59.10
65064;DHT22;51654;51.452;6.644;2023-01-15T09:41:44;8.60;58.70
65064;DHT22;51654;51.452;6.644;2023-01-15T09:47:08;9.00;58.10
65064;DHT22;51654;51.452;6.644;2023-01-15T09:49:39;9.00;57.60
65064;DHT22;51654;51.452;6.644;2023-01-15T09:52:21;9.00;58.00
65064;DHT22;51654;51.452;6.644;2023-01-15T09:57:58;8.70;57.60
65064;DHT22;51654;51.452;6.644;2023-01-15T10:00:26;8.40;58.10
65064;DHT22;51654;51.452;6.644;2023-01-15T10:03:06;7.80;58.90
65064;DHT22;51654;51.452;6.644;2023-01-15T10:05:41;7.60;60.00
65064;DHT22;51654;51.452;6.644;2023-01-15T10:10:53;8.10;59.60
65064;DHT22;51654;51.452;6.644;2023-01-15T10:13:23;7.90;59.30
65064;DHT22;51654;51.452;6.644;2023-01-15T10:15:52;7.90;59.80
65064;DHT22;51654;51.452;6.644;2023-01-15T10:18:19;8.00;59.30
65064;DHT22;51654;51.452;6.644;2023-01-15T10:20:48;8.30;58.70
65064;DHT22;51654;51.452;6.644;2023-01-15T10:31:18;9.00;55.10
65064;DHT22;51654;51.452;6.644;2023-01-15T10:36:35;9.60;54.70
65064;DHT22;51654;51.452;6.644;2023-01-15T10:44:19;9.00;53.20
65064;DHT22;51654;51.452;6.644;2023-01-15T10:46:52;9.00;53.50
65064;DHT22;51654;51.452;6.644;2023-01-15T10:49:25;9.00;53.50
65064;DHT22;51654;51.452;6.644;2023-01-15T10:51:55;8.90;53.70
65064;DHT22;51654;51.452;6.644;2023-01-15T10:54:31;8.50;54.20
65064;DHT22;51654;51.452;6.644;2023-01-15T10:57:15;8.20;54.50
65064;DHT22;51654;51.452;6.644;2023-01-15T10:59:45;8.00;55.40
65064;DHT22;51654;51.452;6.644;2023-01-15T11:03:00;7.60;56.10
65064;DHT22;51654;51.452;6.644;2023-01-15T11:05:01;7.40;56.50
65064;DHT22;51654;51.452;6.644;2023-01-15T11:07:38;7.10;57.30
65064;DHT22;51654;51.452;6.644;2023-01-15T11:10:26;7.00;57.70
65064;DHT22;51654;51.452;6.644;2023-01-15T11:12:53;7.00;59.20
65064;DHT22;51654;51.452;6.644;2023-01-15T11:15:40;6.90;58.60
65064;DHT22;51654;51.452;6.644;2023-01-15T11:18:31;6.80;58.90
65064;DHT22;51654;51.452;6.644;2023-01-15T11:21:18;6.70;58.80
65064;DHT22;51654;51.452;6.644;2023-01-15T11:23:46;6.70;59.00
65064;DHT22;51654;51.452;6.644;2023-01-15T11:26:18;6.60;58.90
65064;DHT22;51654;51.452;6.644;2023-01-15T11:28:45;6.50;59.20
65064;DHT22;51654;51.452;6.644;2023-01-15T11:31:13;6.50;61.00
65064;DHT22;51654;51.452;6.644;2023-01-15T11:33:44;6.50;59.80
65064;DHT22;51654;51.452;6.644;2023-01-15T11:36:22;6.40;60.00
65064;DHT22;51654;51.452;6.644;2023-01-15T11:38:49;6.30;60.40
65064;DHT22;51654;51.452;6.644;2023-01-15T11:41:21;6.20;61.10
65064;DHT22;51654;51.452;6.644;2023-01-15T11:43:56;6.20;61.20
65064;DHT22;51654;51.452;6.644;2023-01-15T11:46:58;6.20;60.40
65064;DHT22;51654;51.452;6.644;2023-01-15T11:49:53;6.10;60.80
65064;DHT22;51654;51.452;6.644;2023-01-15T11:52:48;6.00;60.80
65064;DHT22;51654;51.452;6.644;2023-01-15T11:55:17;6.00;61.10
65064;DHT22;51654;51.452;6.644;2023-01-15T11:57:44;6.00;61.70
65064;DHT22;51654;51.452;6.644;2023-01-15T12:00:27;6.10;60.80
65064;DHT22;51654;51.452;6.644;2023-01-15T12:03:10;6.00;60.40
65064;DHT22;51654;51.452;6.644;2023-01-15T12:05:43;6.00;61.00
65064;DHT22;51654;51.452;6.644;2023-01-15T12:08:14;6.00;61.40
65064;DHT22;51654;51.452;6.644;2023-01-15T12:10:46;5.90;61.50
65064;DHT22;51654;51.452;6.644;2023-01-15T12:14:00;6.00;61.90
65064;DHT22;51654;51.452;6.644;2023-01-15T12:16:33;6.10;61.70
65064;DHT22;51654;51.452;6.644;2023-01-15T12:26:41;6.00;61.80
65064;DHT22;51654;51.452;6.644;2023-01-15T12:29:19;6.10;61.60
65064;DHT22;51654;51.452;6.644;2023-01-15T12:31:54;6.20;61.00
65064;DHT22;51654;51.452;6.644;2023-01-15T12:37:35;6.60;60.60
65064;DHT22;51654;51.452;6.644;2023-01-15T12:42:44;7.00;60.90
65064;DHT22;51654;51.452;6.644;2023-01-15T12:45:31;7.00;59.60
65064;DHT22;51654;51.452;6.644;2023-01-15T12:58:48;6.70;59.80
65064;DHT22;51654;51.452;6.644;2023-01-15T13:06:34;6.40;59.80
65064;DHT22;51654;51.452;6.644;2023-01-15T13:09:05;6.20;60.20
65064;DHT22;51654;51.452;6.644;2023-01-15T13:11:35;6.10;60.80
65064;DHT22;51654;51.452;6.644;2023-01-15T13:14:02;6.00;60.80
65064;DHT22;51654;51.452;6.644;2023-01-15T13:19:23;6.00;61.20
65064;DHT22;51654;51.452;6.644;2023-01-15T13:21:53;6.00;61.50
65064;DHT22;51654;51.452;6.644;2023-01-15T13:24:46;5.90;61.60
65064;DHT22;51654;51.452;6.644;2023-01-15T13:27:19;5.90;61.40
65064;DHT22;51654;51.452;6.644;2023-01-15T13:32:18;5.90;62.30
65064;DHT22;51654;51.452;6.644;2023-01-15T13:35:00;5.80;61.60
65064;DHT22;51654;51.452;6.644;2023-01-15T13:37:31;5.80;62.10
65064;DHT22;51654;51.452;6.644;2023-01-15T13:40:02;5.80;62.90
65064;DHT22;51654;51.452;6.644;2023-01-15T13:42:30;5.80;63.10
65064;DHT22;51654;51.452;6.644;2023-01-15T13:45:20;5.90;62.90
65064;DHT22;51654;51.452;6.644;2023-01-15T13:47:45;5.80;62.60
65064;DHT22;51654;51.452;6.644;2023-01-15T13:50:17;5.80;62.50
65064;DHT22;51654;51.452;6.644;2023-01-15T13:52:44;5.80;62.20
65064;DHT22;51654;51.452;6.644;2023-01-15T13:57:44;5.80;62.20
65064;DHT22;51654;51.452;6.644;2023-01-15T14:00:30;6.00;62.40
65064;DHT22;51654;51.452;6.644;2023-01-15T14:02:58;6.40;62.30
65064;DHT22;51654;51.452;6.644;2023-01-15T14:05:33;6.90;60.60
65064;DHT22;51654;51.452;6.644;2023-01-15T14:08:01;7.00;59.40
65064;DHT22;51654;51.452;6.644;2023-01-15T14:10:33;6.90;59.50
65064;DHT22;51654;51.452;6.644;2023-01-15T14:13:18;6.70;59.80
65064;DHT22;51654;51.452;6.644;2023-01-15T14:21:39;6.30;60.50
65064;DHT22;51654;51.452;6.644;2023-01-15T14:24:11;6.20;60.70
65064;DHT22;51654;51.452;6.644;2023-01-15T14:34:39;6.10;62.00
65064;DHT22;51654;51.452;6.644;2023-01-15T14:39:56;6.10;61.90
65064;DHT22;51654;51.452;6.644;2023-01-15T14:42:31;6.00;61.90
65064;DHT22;51654;51.452;6.644;2023-01-15T14:45:25;5.90;62.30
65064;DHT22;51654;51.452;6.644;2023-01-15T14:47:57;6.00;62.30
65064;DHT22;51654;51.452;6.644;2023-01-15T14:50:28;6.00;62.00
65064;DHT22;51654;51.452;6.644;2023-01-15T14:53:00;6.00;61.60
65064;DHT22;51654;51.452;6.644;2023-01-15T14:55:28;5.90;61.60
65064;DHT22;51654;51.452;6.644;2023-01-15T14:58:05;5.90;61.90
65064;DHT22;51654;51.452;6.644;2023-01-15T15:00:35;5.90;62.00
65064;DHT22;51654;51.452;6.644;2023-01-15T15:03:08;5.90;61.90
65064;DHT22;51654;51.452;6.644;2023-01-15T15:05:39;5.80;61.80
65064;DHT22;51654;51.452;6.644;2023-01-15T15:08:08;5.70;62.20
65064;DHT22;51654;51.452;6.644;2023-01-15T15:10:38;5.70;62.50
65064;DHT22;51654;51.452;6.644;2023-01-15T15:20:47;5.80;62.60
65064;DHT22;51654;51.452;6.644;2023-01-15T15:26:05;5.70;62.90
65064;DHT22;51654;51.452;6.644;2023-01-15T15:28:41;5.80;62.90
65064;DHT22;51654;51.452;6.644;2023-01-15T15:31:08;5.70;62.40
65064;DHT22;51654;51.452;6.644;2023-01-15T15:33:36;5.70;62.40
65064;DHT22;51654;51.452;6.644;2023-01-15T15:36:04;5.60;62.70
65064;DHT22;51654;51.452;6.644;2023-01-15T15:38:32;5.60;62.80
65064;DHT22;51654;51.452;6.644;2023-01-15T15:41:00;5.60;62.70
65064;DHT22;51654;51.452;6.644;2023-01-15T15:46:29;5.60;63.70
65064;DHT22;51654;51.452;6.644;2023-01-15T15:49:15;5.60;63.50
65064;DHT22;51654;51.452;6.644;2023-01-15T15:51:46;5.50;63.70
65064;DHT22;51654;51.452;6.644;2023-01-15T15:54:15;5.50;64.00
65064;DHT22;51654;51.452;6.644;2023-01-15T15:56:44;5.50;64.50
65064;DHT22;51654;51.452;6.644;2023-01-15T15:59:15;5.50;64.30
65064;DHT22;51654;51.452;6.644;2023-01-15T16:01:43;5.50;64.60
65064;DHT22;51654;51.452;6.644;2023-01-15T16:04:17;5.50;64.90
65064;DHT22;51654;51.452;6.644;2023-01-15T16:06:45;5.50;64.70
65064;DHT22;51654;51.452;6.644;2023-01-15T16:09:12;5.50;65.80
65064;DHT22;51654;51.452;6.644;2023-01-15T16:11:39;5.60;65.40
65064;DHT22;51654;51.452;6.644;2023-01-15T16:14:07;5.50;65.00
65064;DHT22;51654;51.452;6.644;2023-01-15T16:16:35;5.50;65.40
65064;DHT22;51654;51.452;6.644;2023-01-15T16:19:02;5.50;65.20
65064;DHT22;51654;51.452;6.644;2023-01-15T16:21:33;5.50;65.80
65064;DHT22;51654;51.452;6.644;2023-01-15T16:24:01;5.40;65.70
65064;DHT22;51654;51.452;6.644;2023-01-15T16:26:32;5.40;65.90
65064;DHT22;51654;51.452;6.644;2023-01-15T16:29:01;5.30;66.20
65064;DHT22;51654;51.452;6.644;2023-01-15T16:31:35;5.30;66.90
65064;DHT22;51654;51.452;6.644;2023-01-15T16:34:02;5.30;67.10
65064;DHT22;51654;51.452;6.644;2023-01-15T16:36:37;5.30;67.40
65064;DHT22;51654;51.452;6.644;2023-01-15T16:39:04;5.40;67.90
65064;DHT22;51654;51.452;6.644;2023-01-15T16:41:36;5.40;67.60
65064;DHT22;51654;51.452;6.644;2023-01-15T16:44:04;5.40;66.90
65064;DHT22;51654;51.452;6.644;2023-01-15T16:46:32;5.30;67.00
65064;DHT22;51654;51.452;6.644;2023-01-15T16:51:47;5.20;67.00
65064;DHT22;51654;51.452;6.644;2023-01-15T16:54:47;5.20;67.30
65064;DHT22;51654;51.452;6.644;2023-01-15T16:57:23;5.20;67.40
65064;DHT22;51654;51.452;6.644;2023-01-15T17:02:21;5.30;66.70
65064;DHT22;51654;51.452;6.644;2023-01-15T17:04:48;5.30;66.60
65064;DHT22;51654;51.452;6.644;2023-01-15T17:07:18;5.30;66.30
65064;DHT22;51654;51.452;6.644;2023-01-15T17:09:50;5.30;66.10
65064;DHT22;51654;51.452;6.644;2023-01-15T17:12:21;5.30;66.60
65064;DHT22;51654;51.452;6.644;2023-01-15T17:14:49;5.40;65.90
65064;DHT22;51654;51.452;6.644;2023-01-15T17:19:49;5.20;65.90
65064;DHT22;51654;51.452;6.644;2023-01-15T17:22:27;5.20;65.80
65064;DHT22;51654;51.452;6.644;2023-01-15T17:24:55;5.20;65.90
65064;DHT22;51654;51.452;6.644;2023-01-15T17:27:22;5.10;66.10
65064;DHT22;51654;51.452;6.644;2023-01-15T17:29:49;5.10;65.70
65064;DHT22;51654;51.452;6.644;2023-01-15T17:32:19;5.10;66.10
65064;DHT22;51654;51.452;6.644;2023-01-15T17:34:46;5.10;66.00
65064;DHT22;51654;51.452;6.644;2023-01-15T17:37:13;5.10;66.20
65064;DHT22;51654;51.452;6.644;2023-01-15T17:39:39;5.20;66.40
65064;DHT22;51654;51.452;6.644;2023-01-15T17:42:11;5.20;65.80
65064;DHT22;51654;51.452;6.644;2023-01-15T17:44:38;5.20;66.10
65064;DHT22;51654;51.452;6.644;2023-01-15T17:47:05;5.30;65.80
65064;DHT22;51654;51.452;6.644;2023-01-15T17:49:32;5.20;65.60
65064;DHT22;51654;51.452;6.644;2023-01-15T17:51:58;5.20;65.40
65064;DHT22;51654;51.452;6.644;2023-01-15T17:54:26;5.20;65.60
65064;DHT22;51654;51.452;6.644;2023-01-15T17:57:11;5.20;65.70
65064;DHT22;51654;51.452;6.644;2023-01-15T17:59:57;5.10;65.80